Aérodrome :
LOGIN :

S'inscrire | Disclaimer

   EN    FR    IT 

 










Légende :    VFR   VFR Marginal   IFR   IFR Intensif   IFR Très Intensif
Visi : 
Plafond : 
>= 8 km
>= 3000ft
5 à 8 km
1000 à 3000 ft
1500m à 5 km
500 à 1000 ft
800 à 1500m
200 à 500 ft
< 800m
< 200 ft
Symboles :   Orages  Brouillard  Fortes neiges  Fortes précipitations  Vent > 20 kt
SIGMETs :   Divers  Orages  Givrage  Turbulence  Onde Orograph.  Cendres Volcan.







- Altitude de l'aérodrome : -15 ft
- Code IATA : RTM


EHRD - Rotterdam Zestienhoven

DERNIER METAR :
  • 170425Z AUTO 27003KT 240V300 9999 BKN038 OVC043 09/08 Q1021 NOSIG

METARs EXPIRÉS :
  • 170355Z AUTO 26003KT 9999 BKN032 BKN037 09/07 Q1021 NOSIG
  • 170325Z AUTO 28003KT 9999 NCD 08/07 Q1021 NOSIG
  • 170255Z AUTO 28003KT 240V310 9999 NCD 09/07 Q1021 NOSIG
  • 170225Z AUTO 27005KT 9999 NSC 09/07 Q1021 NOSIG
  • 170155Z AUTO 26005KT 9999 NSC 09/07 Q1021 NOSIG

TAF TAF EHRD
Valide du 17 à 00h jusqu'au 18 à 06h UTC


162303Z 1700/1806 30005KT 9999 SCT025
BECMG 1706/1709 31013KT
BECMG 1716/1719 35005KT
Pas de NOTAMs connus pour ce terrain.



MET'MAP, la Météo Aéronautique d'un coup d'oeil ! - Copyright ORBIFLY Décembre 2007 - Disclaimer

ORBIFLY MET'MAP TEAM :

Programmation & Développement : Alexandra Zaïnal
Conception & Développement : Baudouin d'Aumeries
Co-Programmation & Développement : Marc-Olivier Méhu
Soutien technique & logistique : Manuel Goepfert

Contact : metmap@orbifly.com




SOURCES & CREDITS :

   NOAA